sensor_id;sensor_type;location;lat;lon;timestamp;P1;durP1;ratioP1;P2;durP2;ratioP2
1703;SDS011;849;48.780;9.216;2023-02-01T00:01:37;12.97;;;0.70;;
1703;SDS011;849;48.780;9.216;2023-02-01T00:04:03;12.70;;;0.50;;
1703;SDS011;849;48.780;9.216;2023-02-01T00:06:29;14.33;;;0.97;;
1703;SDS011;849;48.780;9.216;2023-02-01T00:08:55;12.93;;;0.57;;
1703;SDS011;849;48.780;9.216;2023-02-01T00:11:21;12.63;;;0.40;;
1703;SDS011;849;48.780;9.216;2023-02-01T00:13:47;12.73;;;0.50;;
1703;SDS011;849;48.780;9.216;2023-02-01T00:16:15;12.83;;;0.70;;
1703;SDS011;849;48.780;9.216;2023-02-01T00:18:42;12.97;;;0.80;;
1703;SDS011;849;48.780;9.216;2023-02-01T00:21:12;12.83;;;0.40;;
1703;SDS011;849;48.780;9.216;2023-02-01T00:23:40;12.67;;;0.40;;
1703;SDS011;849;48.780;9.216;2023-02-01T00:26:07;12.83;;;0.40;;
1703;SDS011;849;48.780;9.216;2023-02-01T00:28:37;12.90;;;0.50;;
1703;SDS011;849;48.780;9.216;2023-02-01T00:31:03;12.93;;;0.83;;
1703;SDS011;849;48.780;9.216;2023-02-01T00:33:29;13.10;;;1.27;;
1703;SDS011;849;48.780;9.216;2023-02-01T00:36:06;13.17;;;1.17;;
1703;SDS011;849;48.780;9.216;2023-02-01T00:38:33;12.73;;;0.40;;
1703;SDS011;849;48.780;9.216;2023-02-01T00:41:03;13.03;;;0.80;;
1703;SDS011;849;48.780;9.216;2023-02-01T00:43:31;12.77;;;0.40;;
1703;SDS011;849;48.780;9.216;2023-02-01T00:45:57;12.73;;;0.50;;
1703;SDS011;849;48.780;9.216;2023-02-01T00:48:24;12.77;;;0.50;;
1703;SDS011;849;48.780;9.216;2023-02-01T00:50:50;12.77;;;0.40;;
1703;SDS011;849;48.780;9.216;2023-02-01T00:53:16;12.97;;;0.80;;
1703;SDS011;849;48.780;9.216;2023-02-01T00:55:45;13.13;;;0.87;;
1703;SDS011;849;48.780;9.216;2023-02-01T00:58:13;12.70;;;0.37;;
1703;SDS011;849;48.780;9.216;2023-02-01T01:00:39;12.77;;;0.40;;
1703;SDS011;849;48.780;9.216;2023-02-01T01:03:05;12.70;;;0.50;;
1703;SDS011;849;48.780;9.216;2023-02-01T01:05:46;12.73;;;0.40;;
1703;SDS011;849;48.780;9.216;2023-02-01T01:08:12;12.87;;;0.40;;
1703;SDS011;849;48.780;9.216;2023-02-01T01:10:39;12.67;;;0.40;;
1703;SDS011;849;48.780;9.216;2023-02-01T01:13:05;12.77;;;0.50;;
1703;SDS011;849;48.780;9.216;2023-02-01T01:15:32;12.77;;;0.40;;
1703;SDS011;849;48.780;9.216;2023-02-01T01:18:01;12.83;;;0.40;;
1703;SDS011;849;48.780;9.216;2023-02-01T01:20:27;12.93;;;0.50;;
1703;SDS011;849;48.780;9.216;2023-02-01T01:22:52;12.77;;;0.40;;
1703;SDS011;849;48.780;9.216;2023-02-01T01:25:18;13.03;;;0.63;;
1703;SDS011;849;48.780;9.216;2023-02-01T01:27:43;13.03;;;0.70;;
1703;SDS011;849;48.780;9.216;2023-02-01T01:30:09;12.73;;;0.67;;
1703;SDS011;849;48.780;9.216;2023-02-01T01:32:35;12.73;;;0.40;;
1703;SDS011;849;48.780;9.216;2023-02-01T01:35:01;12.87;;;0.53;;
1703;SDS011;849;48.780;9.216;2023-02-01T01:37:26;12.63;;;0.40;;
1703;SDS011;849;48.780;9.216;2023-02-01T01:39:52;12.77;;;0.40;;
1703;SDS011;849;48.780;9.216;2023-02-01T01:42:18;12.83;;;0.60;;
1703;SDS011;849;48.780;9.216;2023-02-01T01:44:57;12.87;;;0.40;;
1703;SDS011;849;48.780;9.216;2023-02-01T01:47:24;12.77;;;0.40;;
1703;SDS011;849;48.780;9.216;2023-02-01T01:49:52;12.77;;;0.40;;
1703;SDS011;849;48.780;9.216;2023-02-01T01:52:18;12.83;;;0.40;;
1703;SDS011;849;48.780;9.216;2023-02-01T01:54:45;12.70;;;0.40;;
1703;SDS011;849;48.780;9.216;2023-02-01T01:57:14;12.67;;;0.40;;
1703;SDS011;849;48.780;9.216;2023-02-01T01:59:46;12.83;;;0.40;;
1703;SDS011;849;48.780;9.216;2023-02-01T02:02:15;12.73;;;0.30;;
1703;SDS011;849;48.780;9.216;2023-02-01T02:04:41;12.77;;;0.30;;
1703;SDS011;849;48.780;9.216;2023-02-01T02:07:08;12.77;;;0.40;;
1703;SDS011;849;48.780;9.216;2023-02-01T02:09:37;15.03;;;1.57;;
1703;SDS011;849;48.780;9.216;2023-02-01T02:12:03;12.83;;;0.40;;
1703;SDS011;849;48.780;9.216;2023-02-01T02:14:28;13.70;;;1.07;;
1703;SDS011;849;48.780;9.216;2023-02-01T02:25:21;12.77;;;0.40;;
1703;SDS011;849;48.780;9.216;2023-02-01T02:28:20;12.57;;;0.40;;
1703;SDS011;849;48.780;9.216;2023-02-01T02:31:00;12.90;;;0.40;;
1703;SDS011;849;48.780;9.216;2023-02-01T02:33:41;12.77;;;0.40;;
1703;SDS011;849;48.780;9.216;2023-02-01T02:36:16;12.77;;;0.40;;
1703;SDS011;849;48.780;9.216;2023-02-01T02:41:40;12.77;;;0.40;;
1703;SDS011;849;48.780;9.216;2023-02-01T02:47:34;12.73;;;0.40;;
1703;SDS011;849;48.780;9.216;2023-02-01T02:50:33;12.73;;;0.40;;
1703;SDS011;849;48.780;9.216;2023-02-01T02:53:30;12.73;;;0.40;;
1703;SDS011;849;48.780;9.216;2023-02-01T02:56:20;12.87;;;0.40;;
1703;SDS011;849;48.780;9.216;2023-02-01T02:59:07;13.03;;;0.83;;
1703;SDS011;849;48.780;9.216;2023-02-01T03:01:53;12.90;;;0.50;;
1703;SDS011;849;48.780;9.216;2023-02-01T03:04:38;12.83;;;0.40;;
1703;SDS011;849;48.780;9.216;2023-02-01T03:07:13;12.73;;;0.40;;
1703;SDS011;849;48.780;9.216;2023-02-01T03:09:59;12.77;;;0.40;;
1703;SDS011;849;48.780;9.216;2023-02-01T03:12:30;12.73;;;0.30;;
1703;SDS011;849;48.780;9.216;2023-02-01T03:15:20;12.87;;;0.40;;
1703;SDS011;849;48.780;9.216;2023-02-01T03:17:51;12.77;;;0.40;;
1703;SDS011;849;48.780;9.216;2023-02-01T03:20:20;12.77;;;0.40;;
1703;SDS011;849;48.780;9.216;2023-02-01T03:22:48;12.70;;;0.40;;
1703;SDS011;849;48.780;9.216;2023-02-01T03:25:18;12.77;;;0.60;;
1703;SDS011;849;48.780;9.216;2023-02-01T03:28:03;12.77;;;0.40;;
1703;SDS011;849;48.780;9.216;2023-02-01T03:30:52;12.67;;;0.47;;
1703;SDS011;849;48.780;9.216;2023-02-01T03:33:19;12.57;;;0.50;;
1703;SDS011;849;48.780;9.216;2023-02-01T03:35:59;13.50;;;0.60;;
1703;SDS011;849;48.780;9.216;2023-02-01T03:38:30;12.83;;;0.40;;
1703;SDS011;849;48.780;9.216;2023-02-01T03:41:03;12.77;;;0.40;;
1703;SDS011;849;48.780;9.216;2023-02-01T03:46:21;12.87;;;0.50;;
1703;SDS011;849;48.780;9.216;2023-02-01T03:48:57;12.73;;;0.40;;
1703;SDS011;849;48.780;9.216;2023-02-01T03:51:30;13.13;;;0.90;;
1703;SDS011;849;48.780;9.216;2023-02-01T03:53:57;12.73;;;0.40;;
1703;SDS011;849;48.780;9.216;2023-02-01T03:56:27;12.77;;;0.37;;
1703;SDS011;849;48.780;9.216;2023-02-01T03:58:54;12.57;;;0.40;;
1703;SDS011;849;48.780;9.216;2023-02-01T04:01:26;12.67;;;0.40;;
1703;SDS011;849;48.780;9.216;2023-02-01T04:03:53;12.70;;;0.50;;
1703;SDS011;849;48.780;9.216;2023-02-01T04:06:19;13.37;;;1.07;;
1703;SDS011;849;48.780;9.216;2023-02-01T04:08:45;12.93;;;0.50;;
1703;SDS011;849;48.780;9.216;2023-02-01T04:11:11;12.87;;;0.40;;
1703;SDS011;849;48.780;9.216;2023-02-01T04:13:37;12.83;;;0.57;;
1703;SDS011;849;48.780;9.216;2023-02-01T04:16:02;12.83;;;0.40;;
1703;SDS011;849;48.780;9.216;2023-02-01T04:18:28;12.80;;;0.40;;
1703;SDS011;849;48.780;9.216;2023-02-01T04:20:53;12.77;;;0.40;;
1703;SDS011;849;48.780;9.216;2023-02-01T04:23:19;12.87;;;0.40;;
1703;SDS011;849;48.780;9.216;2023-02-01T04:25:45;12.73;;;0.40;;
1703;SDS011;849;48.780;9.216;2023-02-01T04:28:11;12.83;;;0.50;;
1703;SDS011;849;48.780;9.216;2023-02-01T04:30:37;12.77;;;0.40;;
1703;SDS011;849;48.780;9.216;2023-02-01T04:33:02;12.83;;;0.40;;
1703;SDS011;849;48.780;9.216;2023-02-01T04:35:31;12.63;;;0.40;;
1703;SDS011;849;48.780;9.216;2023-02-01T04:37:57;13.30;;;1.40;;
1703;SDS011;849;48.780;9.216;2023-02-01T04:40:23;12.90;;;0.53;;
1703;SDS011;849;48.780;9.216;2023-02-01T04:42:48;12.90;;;0.40;;
1703;SDS011;849;48.780;9.216;2023-02-01T04:45:14;12.77;;;0.40;;
1703;SDS011;849;48.780;9.216;2023-02-01T04:47:39;13.03;;;0.97;;
1703;SDS011;849;48.780;9.216;2023-02-01T04:50:05;12.70;;;0.30;;
1703;SDS011;849;48.780;9.216;2023-02-01T04:52:32;12.70;;;0.40;;
1703;SDS011;849;48.780;9.216;2023-02-01T04:54:58;12.87;;;0.30;;
1703;SDS011;849;48.780;9.216;2023-02-01T04:57:25;12.83;;;0.33;;
1703;SDS011;849;48.780;9.216;2023-02-01T04:59:51;12.73;;;0.40;;
1703;SDS011;849;48.780;9.216;2023-02-01T05:02:16;12.87;;;0.60;;
1703;SDS011;849;48.780;9.216;2023-02-01T05:04:42;12.73;;;0.40;;
1703;SDS011;849;48.780;9.216;2023-02-01T05:07:07;12.87;;;0.40;;
1703;SDS011;849;48.780;9.216;2023-02-01T05:09:33;12.90;;;0.53;;
1703;SDS011;849;48.780;9.216;2023-02-01T05:11:59;12.83;;;0.40;;
1703;SDS011;849;48.780;9.216;2023-02-01T05:14:43;12.83;;;0.40;;
1703;SDS011;849;48.780;9.216;2023-02-01T05:17:08;12.77;;;0.30;;
1703;SDS011;849;48.780;9.216;2023-02-01T05:19:34;14.00;;;1.90;;
1703;SDS011;849;48.780;9.216;2023-02-01T05:21:59;12.83;;;0.40;;
1703;SDS011;849;48.780;9.216;2023-02-01T05:24:25;12.73;;;0.40;;
1703;SDS011;849;48.780;9.216;2023-02-01T05:26:52;12.73;;;0.40;;
1703;SDS011;849;48.780;9.216;2023-02-01T05:29:18;12.87;;;0.40;;
1703;SDS011;849;48.780;9.216;2023-02-01T05:31:44;12.73;;;0.40;;
1703;SDS011;849;48.780;9.216;2023-02-01T05:34:11;12.87;;;0.50;;
1703;SDS011;849;48.780;9.216;2023-02-01T05:36:36;13.80;;;2.30;;
1703;SDS011;849;48.780;9.216;2023-02-01T05:39:02;12.97;;;0.63;;
1703;SDS011;849;48.780;9.216;2023-02-01T05:41:28;12.77;;;0.40;;
1703;SDS011;849;48.780;9.216;2023-02-01T05:43:54;12.90;;;0.50;;
1703;SDS011;849;48.780;9.216;2023-02-01T05:46:20;12.73;;;0.40;;
1703;SDS011;849;48.780;9.216;2023-02-01T05:48:46;12.53;;;0.40;;
1703;SDS011;849;48.780;9.216;2023-02-01T05:51:11;12.70;;;0.40;;
1703;SDS011;849;48.780;9.216;2023-02-01T05:53:37;12.67;;;0.40;;
1703;SDS011;849;48.780;9.216;2023-02-01T05:56:03;12.83;;;0.40;;
1703;SDS011;849;48.780;9.216;2023-02-01T05:58:30;12.60;;;0.30;;
1703;SDS011;849;48.780;9.216;2023-02-01T06:00:55;12.67;;;0.40;;
1703;SDS011;849;48.780;9.216;2023-02-01T06:03:23;12.73;;;0.40;;
1703;SDS011;849;48.780;9.216;2023-02-01T06:05:49;12.83;;;0.40;;
1703;SDS011;849;48.780;9.216;2023-02-01T06:08:14;12.83;;;0.40;;
1703;SDS011;849;48.780;9.216;2023-02-01T06:10:40;12.77;;;0.40;;
1703;SDS011;849;48.780;9.216;2023-02-01T06:13:05;14.83;;;2.07;;
1703;SDS011;849;48.780;9.216;2023-02-01T06:15:32;14.07;;;1.87;;
1703;SDS011;849;48.780;9.216;2023-02-01T06:17:58;13.33;;;0.70;;
1703;SDS011;849;48.780;9.216;2023-02-01T06:20:24;12.57;;;0.53;;
1703;SDS011;849;48.780;9.216;2023-02-01T06:22:49;13.07;;;0.90;;
1703;SDS011;849;48.780;9.216;2023-02-01T06:25:15;12.77;;;0.40;;
1703;SDS011;849;48.780;9.216;2023-02-01T06:27:42;13.40;;;0.60;;
1703;SDS011;849;48.780;9.216;2023-02-01T06:30:09;13.13;;;0.50;;
1703;SDS011;849;48.780;9.216;2023-02-01T06:32:38;13.13;;;0.60;;
1703;SDS011;849;48.780;9.216;2023-02-01T06:35:06;12.87;;;0.60;;
1703;SDS011;849;48.780;9.216;2023-02-01T06:37:33;12.53;;;0.40;;
1703;SDS011;849;48.780;9.216;2023-02-01T06:39:59;12.63;;;0.40;;
1703;SDS011;849;48.780;9.216;2023-02-01T06:42:24;13.70;;;0.40;;
1703;SDS011;849;48.780;9.216;2023-02-01T06:44:50;12.87;;;0.80;;
1703;SDS011;849;48.780;9.216;2023-02-01T06:47:16;12.77;;;0.40;;
1703;SDS011;849;48.780;9.216;2023-02-01T06:49:42;12.73;;;0.40;;
1703;SDS011;849;48.780;9.216;2023-02-01T06:52:07;13.23;;;0.93;;
1703;SDS011;849;48.780;9.216;2023-02-01T06:54:33;12.83;;;0.40;;
1703;SDS011;849;48.780;9.216;2023-02-01T06:56:59;13.70;;;0.40;;
1703;SDS011;849;48.780;9.216;2023-02-01T06:59:25;12.83;;;0.40;;
1703;SDS011;849;48.780;9.216;2023-02-01T07:01:51;12.77;;;0.40;;
1703;SDS011;849;48.780;9.216;2023-02-01T07:04:16;12.83;;;0.40;;
1703;SDS011;849;48.780;9.216;2023-02-01T07:06:42;13.90;;;2.00;;
1703;SDS011;849;48.780;9.216;2023-02-01T07:09:07;12.83;;;0.40;;
1703;SDS011;849;48.780;9.216;2023-02-01T07:11:34;12.77;;;0.40;;
1703;SDS011;849;48.780;9.216;2023-02-01T07:13:59;12.77;;;0.40;;
1703;SDS011;849;48.780;9.216;2023-02-01T07:16:25;12.77;;;0.40;;
1703;SDS011;849;48.780;9.216;2023-02-01T07:18:52;12.77;;;0.40;;
1703;SDS011;849;48.780;9.216;2023-02-01T07:21:18;15.10;;;0.50;;
1703;SDS011;849;48.780;9.216;2023-02-01T07:23:44;13.17;;;1.23;;
1703;SDS011;849;48.780;9.216;2023-02-01T07:26:11;12.77;;;0.40;;
1703;SDS011;849;48.780;9.216;2023-02-01T07:28:38;12.90;;;0.90;;
1703;SDS011;849;48.780;9.216;2023-02-01T07:31:07;12.83;;;0.40;;
1703;SDS011;849;48.780;9.216;2023-02-01T07:33:35;12.90;;;0.40;;
1703;SDS011;849;48.780;9.216;2023-02-01T07:36:02;12.77;;;0.40;;
1703;SDS011;849;48.780;9.216;2023-02-01T07:38:29;13.07;;;0.70;;
1703;SDS011;849;48.780;9.216;2023-02-01T07:40:58;12.63;;;0.40;;
1703;SDS011;849;48.780;9.216;2023-02-01T07:43:27;13.40;;;1.33;;
1703;SDS011;849;48.780;9.216;2023-02-01T07:45:54;12.77;;;0.40;;
1703;SDS011;849;48.780;9.216;2023-02-01T07:48:21;12.70;;;0.40;;
1703;SDS011;849;48.780;9.216;2023-02-01T07:50:47;12.73;;;0.40;;
1703;SDS011;849;48.780;9.216;2023-02-01T07:53:13;12.77;;;0.40;;
1703;SDS011;849;48.780;9.216;2023-02-01T07:55:39;12.50;;;0.40;;
1703;SDS011;849;48.780;9.216;2023-02-01T07:58:05;13.50;;;0.40;;
1703;SDS011;849;48.780;9.216;2023-02-01T08:00:31;14.70;;;0.93;;
1703;SDS011;849;48.780;9.216;2023-02-01T08:03:16;14.50;;;1.27;;
1703;SDS011;849;48.780;9.216;2023-02-01T08:05:41;12.17;;;0.40;;
1703;SDS011;849;48.780;9.216;2023-02-01T08:08:07;12.27;;;0.40;;
1703;SDS011;849;48.780;9.216;2023-02-01T08:10:33;12.43;;;0.60;;
1703;SDS011;849;48.780;9.216;2023-02-01T08:13:00;12.37;;;0.40;;
1703;SDS011;849;48.780;9.216;2023-02-01T08:15:29;12.27;;;0.40;;
1703;SDS011;849;48.780;9.216;2023-02-01T08:17:55;12.33;;;0.40;;
1703;SDS011;849;48.780;9.216;2023-02-01T08:20:22;12.37;;;0.40;;
1703;SDS011;849;48.780;9.216;2023-02-01T08:22:54;12.67;;;1.23;;
1703;SDS011;849;48.780;9.216;2023-02-01T08:25:19;12.47;;;0.50;;
1703;SDS011;849;48.780;9.216;2023-02-01T08:27:46;13.90;;;0.70;;
1703;SDS011;849;48.780;9.216;2023-02-01T08:30:11;12.37;;;0.40;;
1703;SDS011;849;48.780;9.216;2023-02-01T08:32:38;12.50;;;0.40;;
1703;SDS011;849;48.780;9.216;2023-02-01T08:35:03;12.63;;;0.80;;
1703;SDS011;849;48.780;9.216;2023-02-01T08:37:30;12.47;;;0.50;;
1703;SDS011;849;48.780;9.216;2023-02-01T08:39:56;12.70;;;0.90;;
1703;SDS011;849;48.780;9.216;2023-02-01T08:42:22;12.43;;;0.40;;
1703;SDS011;849;48.780;9.216;2023-02-01T08:45:06;12.23;;;0.37;;
1703;SDS011;849;48.780;9.216;2023-02-01T08:47:33;12.10;;;0.40;;
1703;SDS011;849;48.780;9.216;2023-02-01T08:49:59;12.43;;;0.60;;
1703;SDS011;849;48.780;9.216;2023-02-01T08:52:25;12.37;;;0.40;;
1703;SDS011;849;48.780;9.216;2023-02-01T08:54:51;12.27;;;0.53;;
1703;SDS011;849;48.780;9.216;2023-02-01T08:57:16;11.67;;;0.30;;
1703;SDS011;849;48.780;9.216;2023-02-01T08:59:42;24.10;;;3.33;;
1703;SDS011;849;48.780;9.216;2023-02-01T09:02:12;11.93;;;0.97;;
1703;SDS011;849;48.780;9.216;2023-02-01T09:04:40;11.67;;;0.40;;
1703;SDS011;849;48.780;9.216;2023-02-01T09:07:06;11.87;;;0.50;;
1703;SDS011;849;48.780;9.216;2023-02-01T09:09:32;11.73;;;0.40;;
1703;SDS011;849;48.780;9.216;2023-02-01T09:11:58;11.87;;;0.63;;
1703;SDS011;849;48.780;9.216;2023-02-01T09:14:24;11.67;;;0.40;;
1703;SDS011;849;48.780;9.216;2023-02-01T09:16:49;11.67;;;0.40;;
1703;SDS011;849;48.780;9.216;2023-02-01T09:19:15;11.63;;;0.30;;
1703;SDS011;849;48.780;9.216;2023-02-01T09:21:41;11.63;;;0.40;;
1703;SDS011;849;48.780;9.216;2023-02-01T09:24:08;11.67;;;0.40;;
1703;SDS011;849;48.780;9.216;2023-02-01T09:26:37;13.10;;;1.47;;
1703;SDS011;849;48.780;9.216;2023-02-01T09:29:03;12.63;;;2.23;;
1703;SDS011;849;48.780;9.216;2023-02-01T09:31:31;11.43;;;0.50;;
1703;SDS011;849;48.780;9.216;2023-02-01T09:33:57;16.47;;;1.13;;
1703;SDS011;849;48.780;9.216;2023-02-01T09:36:22;11.50;;;0.83;;
1703;SDS011;849;48.780;9.216;2023-02-01T09:38:49;11.33;;;0.37;;
1703;SDS011;849;48.780;9.216;2023-02-01T09:41:26;11.33;;;0.40;;
1703;SDS011;849;48.780;9.216;2023-02-01T09:44:01;11.33;;;0.30;;
1703;SDS011;849;48.780;9.216;2023-02-01T09:46:30;14.93;;;0.70;;
1703;SDS011;849;48.780;9.216;2023-02-01T09:49:00;10.77;;;0.43;;
1703;SDS011;849;48.780;9.216;2023-02-01T09:51:37;10.43;;;0.30;;
1703;SDS011;849;48.780;9.216;2023-02-01T09:54:24;10.40;;;0.40;;
1703;SDS011;849;48.780;9.216;2023-02-01T09:56:56;10.80;;;0.60;;
1703;SDS011;849;48.780;9.216;2023-02-01T10:00:14;10.43;;;0.40;;
1703;SDS011;849;48.780;9.216;2023-02-01T10:02:20;10.03;;;0.40;;
1703;SDS011;849;48.780;9.216;2023-02-01T10:04:49;12.17;;;1.93;;
1703;SDS011;849;48.780;9.216;2023-02-01T10:07:19;10.50;;;0.40;;
1703;SDS011;849;48.780;9.216;2023-02-01T10:09:56;9.87;;;0.40;;
1703;SDS011;849;48.780;9.216;2023-02-01T10:15:40;11.33;;;1.73;;
1703;SDS011;849;48.780;9.216;2023-02-01T10:24:12;9.90;;;0.67;;
1703;SDS011;849;48.780;9.216;2023-02-01T10:26:42;9.70;;;0.70;;
1703;SDS011;849;48.780;9.216;2023-02-01T10:29:24;8.77;;;0.47;;
1703;SDS011;849;48.780;9.216;2023-02-01T10:31:54;10.53;;;0.70;;
1703;SDS011;849;48.780;9.216;2023-02-01T10:34:27;8.37;;;0.50;;
1703;SDS011;849;48.780;9.216;2023-02-01T10:37:13;8.57;;;0.30;;
1703;SDS011;849;48.780;9.216;2023-02-01T10:39:48;10.23;;;1.07;;
1703;SDS011;849;48.780;9.216;2023-02-01T10:42:17;9.70;;;1.13;;
1703;SDS011;849;48.780;9.216;2023-02-01T10:44:46;8.10;;;0.87;;
1703;SDS011;849;48.780;9.216;2023-02-01T10:47:13;9.13;;;1.10;;
1703;SDS011;849;48.780;9.216;2023-02-01T10:49:41;7.73;;;0.40;;
1703;SDS011;849;48.780;9.216;2023-02-01T10:55:02;8.30;;;1.63;;
1703;SDS011;849;48.780;9.216;2023-02-01T10:57:58;10.10;;;0.87;;
1703;SDS011;849;48.780;9.216;2023-02-01T11:00:42;9.93;;;1.87;;
1703;SDS011;849;48.780;9.216;2023-02-01T11:03:21;8.10;;;1.07;;
1703;SDS011;849;48.780;9.216;2023-02-01T11:05:55;8.13;;;2.30;;
1703;SDS011;849;48.780;9.216;2023-02-01T11:08:21;7.90;;;2.77;;
1703;SDS011;849;48.780;9.216;2023-02-01T11:10:49;7.07;;;0.50;;
1703;SDS011;849;48.780;9.216;2023-02-01T11:13:24;7.60;;;0.90;;
1703;SDS011;849;48.780;9.216;2023-02-01T11:16:01;7.47;;;0.40;;
1703;SDS011;849;48.780;9.216;2023-02-01T11:18:29;7.73;;;0.30;;
1703;SDS011;849;48.780;9.216;2023-02-01T11:20:56;7.50;;;0.50;;
1703;SDS011;849;48.780;9.216;2023-02-01T11:23:24;7.27;;;0.30;;
1703;SDS011;849;48.780;9.216;2023-02-01T11:25:53;7.30;;;0.30;;
1703;SDS011;849;48.780;9.216;2023-02-01T11:28:22;8.30;;;0.83;;
1703;SDS011;849;48.780;9.216;2023-02-01T11:30:50;7.20;;;0.90;;
1703;SDS011;849;48.780;9.216;2023-02-01T11:33:18;6.30;;;0.60;;
1703;SDS011;849;48.780;9.216;2023-02-01T11:35:45;6.90;;;0.90;;
1703;SDS011;849;48.780;9.216;2023-02-01T11:38:21;6.60;;;0.67;;
1703;SDS011;849;48.780;9.216;2023-02-01T11:40:52;7.63;;;0.70;;
1703;SDS011;849;48.780;9.216;2023-02-01T11:43:24;7.30;;;1.47;;
1703;SDS011;849;48.780;9.216;2023-02-01T11:45:59;6.80;;;0.30;;
1703;SDS011;849;48.780;9.216;2023-02-01T11:48:28;6.70;;;0.40;;
1703;SDS011;849;48.780;9.216;2023-02-01T11:59:19;7.03;;;0.30;;
1703;SDS011;849;48.780;9.216;2023-02-01T12:18:44;6.03;;;0.40;;
1703;SDS011;849;48.780;9.216;2023-02-01T12:23:41;6.50;;;1.20;;
1703;SDS011;849;48.780;9.216;2023-02-01T12:26:30;5.47;;;0.30;;
1703;SDS011;849;48.780;9.216;2023-02-01T12:37:27;5.83;;;0.30;;
1703;SDS011;849;48.780;9.216;2023-02-01T12:45:48;6.97;;;0.83;;
1703;SDS011;849;48.780;9.216;2023-02-01T12:51:16;8.77;;;1.27;;
1703;SDS011;849;48.780;9.216;2023-02-01T12:53:55;5.80;;;0.30;;
1703;SDS011;849;48.780;9.216;2023-02-01T12:56:34;5.87;;;0.30;;
1703;SDS011;849;48.780;9.216;2023-02-01T12:59:08;5.87;;;0.40;;
1703;SDS011;849;48.780;9.216;2023-02-01T13:01:55;6.20;;;0.80;;
1703;SDS011;849;48.780;9.216;2023-02-01T13:04:28;6.37;;;0.57;;
1703;SDS011;849;48.780;9.216;2023-02-01T13:07:18;5.97;;;0.30;;
1703;SDS011;849;48.780;9.216;2023-02-01T13:12:32;6.20;;;0.50;;
1703;SDS011;849;48.780;9.216;2023-02-01T13:15:05;6.53;;;1.23;;
1703;SDS011;849;48.780;9.216;2023-02-01T13:17:40;6.33;;;0.30;;
1703;SDS011;849;48.780;9.216;2023-02-01T13:20:25;6.63;;;0.73;;
1703;SDS011;849;48.780;9.216;2023-02-01T13:23:00;6.50;;;0.30;;
1703;SDS011;849;48.780;9.216;2023-02-01T13:36:43;6.43;;;0.30;;
1703;SDS011;849;48.780;9.216;2023-02-01T13:41:54;6.60;;;0.70;;
1703;SDS011;849;48.780;9.216;2023-02-01T13:44:27;6.50;;;0.30;;
1703;SDS011;849;48.780;9.216;2023-02-01T13:47:02;6.50;;;0.67;;
1703;SDS011;849;48.780;9.216;2023-02-01T13:49:38;6.37;;;0.40;;
1703;SDS011;849;48.780;9.216;2023-02-01T13:52:06;6.03;;;0.40;;
1703;SDS011;849;48.780;9.216;2023-02-01T13:54:47;6.17;;;0.30;;
1703;SDS011;849;48.780;9.216;2023-02-01T13:57:32;6.30;;;0.30;;
1703;SDS011;849;48.780;9.216;2023-02-01T14:03:01;6.43;;;0.30;;
1703;SDS011;849;48.780;9.216;2023-02-01T14:26:20;6.30;;;0.40;;
1703;SDS011;849;48.780;9.216;2023-02-01T14:32:02;6.20;;;0.50;;
1703;SDS011;849;48.780;9.216;2023-02-01T14:44:48;6.40;;;0.50;;
1703;SDS011;849;48.780;9.216;2023-02-01T14:50:03;6.33;;;0.40;;
1703;SDS011;849;48.780;9.216;2023-02-01T14:52:32;5.90;;;0.30;;
1703;SDS011;849;48.780;9.216;2023-02-01T14:55:12;6.50;;;0.80;;
1703;SDS011;849;48.780;9.216;2023-02-01T14:57:42;6.30;;;0.77;;
1703;SDS011;849;48.780;9.216;2023-02-01T15:00:20;6.17;;;0.50;;
1703;SDS011;849;48.780;9.216;2023-02-01T15:02:49;6.33;;;0.33;;
1703;SDS011;849;48.780;9.216;2023-02-01T15:05:22;6.37;;;0.50;;
1703;SDS011;849;48.780;9.216;2023-02-01T15:07:50;6.80;;;1.00;;
1703;SDS011;849;48.780;9.216;2023-02-01T15:10:17;6.37;;;0.40;;
1703;SDS011;849;48.780;9.216;2023-02-01T15:12:44;6.70;;;0.60;;
1703;SDS011;849;48.780;9.216;2023-02-01T15:17:42;6.50;;;0.60;;
1703;SDS011;849;48.780;9.216;2023-02-01T15:20:17;7.53;;;2.20;;
1703;SDS011;849;48.780;9.216;2023-02-01T15:22:57;6.60;;;0.30;;
1703;SDS011;849;48.780;9.216;2023-02-01T15:25:45;6.80;;;0.40;;
1703;SDS011;849;48.780;9.216;2023-02-01T15:28:14;9.30;;;1.10;;
1703;SDS011;849;48.780;9.216;2023-02-01T15:30:51;7.00;;;0.77;;
1703;SDS011;849;48.780;9.216;2023-02-01T15:33:25;6.67;;;0.40;;
1703;SDS011;849;48.780;9.216;2023-02-01T15:35:55;6.77;;;0.30;;
1703;SDS011;849;48.780;9.216;2023-02-01T15:38:31;6.67;;;0.70;;
1703;SDS011;849;48.780;9.216;2023-02-01T15:43:29;6.77;;;0.37;;
1703;SDS011;849;48.780;9.216;2023-02-01T15:46:01;6.80;;;0.40;;
1703;SDS011;849;48.780;9.216;2023-02-01T15:48:34;7.20;;;0.70;;
1703;SDS011;849;48.780;9.216;2023-02-01T15:51:10;6.80;;;0.40;;
1703;SDS011;849;48.780;9.216;2023-02-01T15:53:50;17.53;;;2.47;;
1703;SDS011;849;48.780;9.216;2023-02-01T15:56:21;9.80;;;0.73;;
1703;SDS011;849;48.780;9.216;2023-02-01T15:58:50;6.33;;;0.30;;
1703;SDS011;849;48.780;9.216;2023-02-01T16:01:18;6.47;;;0.30;;
1703;SDS011;849;48.780;9.216;2023-02-01T16:03:44;6.73;;;0.30;;
1703;SDS011;849;48.780;9.216;2023-02-01T16:08:52;6.80;;;0.40;;
1703;SDS011;849;48.780;9.216;2023-02-01T16:11:27;6.87;;;0.57;;
1703;SDS011;849;48.780;9.216;2023-02-01T16:13:56;6.40;;;0.53;;
1703;SDS011;849;48.780;9.216;2023-02-01T16:16:22;11.43;;;1.23;;
1703;SDS011;849;48.780;9.216;2023-02-01T16:18:48;6.50;;;1.53;;
1703;SDS011;849;48.780;9.216;2023-02-01T16:21:14;9.50;;;1.83;;
1703;SDS011;849;48.780;9.216;2023-02-01T16:23:40;16.23;;;1.03;;
1703;SDS011;849;48.780;9.216;2023-02-01T16:26:05;6.00;;;0.40;;
1703;SDS011;849;48.780;9.216;2023-02-01T16:28:31;5.80;;;0.40;;
1703;SDS011;849;48.780;9.216;2023-02-01T16:30:57;5.93;;;0.30;;
1703;SDS011;849;48.780;9.216;2023-02-01T16:33:23;6.47;;;1.60;;
1703;SDS011;849;48.780;9.216;2023-02-01T16:35:50;5.90;;;0.30;;
1703;SDS011;849;48.780;9.216;2023-02-01T16:38:18;5.93;;;0.40;;
1703;SDS011;849;48.780;9.216;2023-02-01T16:40:46;5.97;;;0.37;;
1703;SDS011;849;48.780;9.216;2023-02-01T16:43:16;5.93;;;0.30;;
1703;SDS011;849;48.780;9.216;2023-02-01T16:45:44;6.80;;;0.83;;
1703;SDS011;849;48.780;9.216;2023-02-01T16:48:19;6.20;;;0.67;;
1703;SDS011;849;48.780;9.216;2023-02-01T16:50:51;5.83;;;0.40;;
1703;SDS011;849;48.780;9.216;2023-02-01T16:53:19;5.90;;;0.60;;
1703;SDS011;849;48.780;9.216;2023-02-01T16:55:47;7.60;;;0.90;;
1703;SDS011;849;48.780;9.216;2023-02-01T16:58:14;5.93;;;0.30;;
1703;SDS011;849;48.780;9.216;2023-02-01T17:00:41;5.93;;;0.30;;
1703;SDS011;849;48.780;9.216;2023-02-01T17:03:09;6.00;;;0.30;;
1703;SDS011;849;48.780;9.216;2023-02-01T17:05:37;5.83;;;0.40;;
1703;SDS011;849;48.780;9.216;2023-02-01T17:08:04;6.50;;;0.93;;
1703;SDS011;849;48.780;9.216;2023-02-01T17:10:31;5.90;;;0.40;;
1703;SDS011;849;48.780;9.216;2023-02-01T17:12:57;5.90;;;0.30;;
1703;SDS011;849;48.780;9.216;2023-02-01T17:15:27;5.90;;;0.30;;
1703;SDS011;849;48.780;9.216;2023-02-01T17:17:56;5.90;;;0.30;;
1703;SDS011;849;48.780;9.216;2023-02-01T17:20:23;6.00;;;0.30;;
1703;SDS011;849;48.780;9.216;2023-02-01T17:22:51;6.00;;;0.30;;
1703;SDS011;849;48.780;9.216;2023-02-01T17:25:18;6.20;;;0.30;;
1703;SDS011;849;48.780;9.216;2023-02-01T17:27:45;6.40;;;0.70;;
1703;SDS011;849;48.780;9.216;2023-02-01T17:30:11;7.23;;;1.33;;
1703;SDS011;849;48.780;9.216;2023-02-01T17:32:38;7.47;;;2.30;;
1703;SDS011;849;48.780;9.216;2023-02-01T17:35:04;6.13;;;0.30;;
1703;SDS011;849;48.780;9.216;2023-02-01T17:37:32;6.00;;;0.40;;
1703;SDS011;849;48.780;9.216;2023-02-01T17:39:58;6.47;;;0.60;;
1703;SDS011;849;48.780;9.216;2023-02-01T17:42:25;6.07;;;0.30;;
1703;SDS011;849;48.780;9.216;2023-02-01T17:44:54;6.10;;;0.40;;
1703;SDS011;849;48.780;9.216;2023-02-01T17:47:21;6.13;;;0.30;;
1703;SDS011;849;48.780;9.216;2023-02-01T17:49:46;6.00;;;0.30;;
1703;SDS011;849;48.780;9.216;2023-02-01T17:52:16;6.10;;;0.30;;
1703;SDS011;849;48.780;9.216;2023-02-01T17:54:43;6.00;;;0.30;;